Morning View, Kentucky
Current Conditions -  °F | °C
As of 3:53 PM on Saturday 25 Oct 2014 (Local Time) from KLUK Reporting Station
Clear Clear  
Wind Chill: 72°   Ceiling: Unl
Heat Index: 72°   Visibility: 10mi
Dew Point: 57°   Wind: 12mph
Humidity: 59%   Direction: 240°WSW
Pressure: 29.91"   Gusts: NA
Location:  38.83°N, 84.46°W
Report Text: KLUK 251953Z 24010KT 10SM CLR 22/14 A2991 RMK AO2 SLP129 T02220139
Loading
Personal Weather Stations






























Interactive Weather Map
Tropical Storm Tracking
New forecast layout! Learn more

10-Day Weather Forecast

Advertisements
Track Severe Weather on mobile